sensor_id;sensor_type;location;lat;lon;timestamp;pressure;altitude;pressure_sealevel;temperature;humidity
5455;BME280;2750;49.050;9.250;2022-07-24T00:01:03;99069.59;;;23.73;81.28
5455;BME280;2750;49.050;9.250;2022-07-24T00:06:05;99068.91;;;23.71;81.27
5455;BME280;2750;49.050;9.250;2022-07-24T00:11:08;99080.28;;;23.81;81.16
5455;BME280;2750;49.050;9.250;2022-07-24T00:16:10;99082.38;;;23.60;80.93
5455;BME280;2750;49.050;9.250;2022-07-24T00:21:11;99075.34;;;23.68;80.41
5455;BME280;2750;49.050;9.250;2022-07-24T00:26:14;99066.56;;;23.95;80.28
5455;BME280;2750;49.050;9.250;2022-07-24T00:31:16;99068.50;;;23.93;80.61
5455;BME280;2750;49.050;9.250;2022-07-24T00:36:17;99068.81;;;23.90;80.82
5455;BME280;2750;49.050;9.250;2022-07-24T00:41:20;99065.22;;;23.81;80.74
5455;BME280;2750;49.050;9.250;2022-07-24T00:46:22;99067.13;;;23.89;80.32
5455;BME280;2750;49.050;9.250;2022-07-24T00:51:23;99056.31;;;23.83;81.33
5455;BME280;2750;49.050;9.250;2022-07-24T00:56:26;99051.44;;;23.78;80.91
5455;BME280;2750;49.050;9.250;2022-07-24T01:01:28;99055.88;;;23.60;80.29
5455;BME280;2750;49.050;9.250;2022-07-24T01:06:30;99066.50;;;23.50;81.52
5455;BME280;2750;49.050;9.250;2022-07-24T01:11:33;99050.88;;;23.57;81.26
5455;BME280;2750;49.050;9.250;2022-07-24T01:16:35;99055.47;;;23.55;80.88
5455;BME280;2750;49.050;9.250;2022-07-24T01:21:39;99059.19;;;23.62;81.01
5455;BME280;2750;49.050;9.250;2022-07-24T01:26:46;99061.66;;;23.46;82.26
5455;BME280;2750;49.050;9.250;2022-07-24T01:31:48;99056.22;;;23.38;82.53
5455;BME280;2750;49.050;9.250;2022-07-24T01:36:51;99063.38;;;23.18;83.40
5455;BME280;2750;49.050;9.250;2022-07-24T01:47:49;99065.16;;;22.80;85.21
5455;BME280;2750;49.050;9.250;2022-07-24T01:52:52;99064.16;;;22.81;84.87
5455;BME280;2750;49.050;9.250;2022-07-24T01:57:54;99060.69;;;22.71;85.40
5455;BME280;2750;49.050;9.250;2022-07-24T02:02:55;99061.53;;;22.72;85.56
5455;BME280;2750;49.050;9.250;2022-07-24T02:07:59;99056.22;;;22.72;85.59
5455;BME280;2750;49.050;9.250;2022-07-24T02:13:01;99056.63;;;22.48;86.29
5455;BME280;2750;49.050;9.250;2022-07-24T02:18:03;99062.47;;;22.52;86.28
5455;BME280;2750;49.050;9.250;2022-07-24T02:23:06;99064.81;;;22.35;86.42
5455;BME280;2750;49.050;9.250;2022-07-24T02:28:07;99073.88;;;22.42;85.25
5455;BME280;2750;49.050;9.250;2022-07-24T02:33:09;99057.72;;;22.07;85.82
5455;BME280;2750;49.050;9.250;2022-07-24T02:38:12;99060.53;;;22.15;85.26
5455;BME280;2750;49.050;9.250;2022-07-24T02:43:13;99061.75;;;22.21;86.11
5455;BME280;2750;49.050;9.250;2022-07-24T02:48:15;99054.66;;;22.21;87.15
5455;BME280;2750;49.050;9.250;2022-07-24T02:53:18;99057.16;;;22.13;85.50
5455;BME280;2750;49.050;9.250;2022-07-24T02:58:19;99064.41;;;22.11;85.97
5455;BME280;2750;49.050;9.250;2022-07-24T03:03:21;99069.38;;;21.95;86.40
5455;BME280;2750;49.050;9.250;2022-07-24T03:08:24;99071.00;;;21.86;87.95
5455;BME280;2750;49.050;9.250;2022-07-24T03:13:25;99056.84;;;21.97;87.64
5455;BME280;2750;49.050;9.250;2022-07-24T03:18:26;99066.91;;;22.03;86.15
5455;BME280;2750;49.050;9.250;2022-07-24T03:23:29;99069.47;;;21.84;86.92
5455;BME280;2750;49.050;9.250;2022-07-24T03:28:31;99067.44;;;21.67;86.59
5455;BME280;2750;49.050;9.250;2022-07-24T03:33:32;99076.09;;;21.78;86.83
5455;BME280;2750;49.050;9.250;2022-07-24T03:38:35;99076.34;;;21.66;86.73
5455;BME280;2750;49.050;9.250;2022-07-24T03:43:37;99073.97;;;21.63;87.54
5455;BME280;2750;49.050;9.250;2022-07-24T03:48:38;99077.66;;;21.51;88.45
5455;BME280;2750;49.050;9.250;2022-07-24T03:53:41;99081.66;;;20.94;91.02
5455;BME280;2750;49.050;9.250;2022-07-24T03:58:43;99085.00;;;21.37;89.56
5455;BME280;2750;49.050;9.250;2022-07-24T04:03:44;99093.69;;;21.59;86.99
5455;BME280;2750;49.050;9.250;2022-07-24T04:08:47;99086.94;;;22.06;86.51
5455;BME280;2750;49.050;9.250;2022-07-24T04:13:48;99096.19;;;22.50;85.20
5455;BME280;2750;49.050;9.250;2022-07-24T04:18:50;99101.34;;;22.61;84.66
5455;BME280;2750;49.050;9.250;2022-07-24T04:23:53;99107.03;;;23.04;82.86
5455;BME280;2750;49.050;9.250;2022-07-24T04:28:54;99105.59;;;23.19;82.08
5455;BME280;2750;49.050;9.250;2022-07-24T04:33:56;99103.69;;;23.58;80.83
5455;BME280;2750;49.050;9.250;2022-07-24T04:38:59;99105.00;;;24.54;78.70
5455;BME280;2750;49.050;9.250;2022-07-24T04:44:00;99106.22;;;25.64;75.46
5455;BME280;2750;49.050;9.250;2022-07-24T04:49:02;99106.50;;;26.61;72.72
5455;BME280;2750;49.050;9.250;2022-07-24T04:54:05;99109.19;;;27.26;70.78
5455;BME280;2750;49.050;9.250;2022-07-24T04:59:06;99106.13;;;28.16;67.57
5455;BME280;2750;49.050;9.250;2022-07-24T05:04:08;99113.28;;;28.08;67.63
5455;BME280;2750;49.050;9.250;2022-07-24T05:09:11;99117.94;;;27.75;68.28
5455;BME280;2750;49.050;9.250;2022-07-24T05:14:12;99118.47;;;28.17;67.74
5455;BME280;2750;49.050;9.250;2022-07-24T05:19:14;99110.66;;;28.38;66.36
5455;BME280;2750;49.050;9.250;2022-07-24T05:24:17;99104.91;;;30.06;63.59
5455;BME280;2750;49.050;9.250;2022-07-24T05:29:18;99104.00;;;30.92;61.96
5455;BME280;2750;49.050;9.250;2022-07-24T05:34:20;99104.66;;;31.15;61.35
5455;BME280;2750;49.050;9.250;2022-07-24T05:39:22;99096.16;;;32.08;59.80
5455;BME280;2750;49.050;9.250;2022-07-24T05:44:24;99104.84;;;32.10;59.25
5455;BME280;2750;49.050;9.250;2022-07-24T05:49:25;99090.56;;;32.77;57.93
5455;BME280;2750;49.050;9.250;2022-07-24T05:54:29;99097.59;;;33.04;57.93
5455;BME280;2750;49.050;9.250;2022-07-24T05:59:31;99091.41;;;33.23;57.99
5455;BME280;2750;49.050;9.250;2022-07-24T06:04:32;99085.78;;;33.05;58.15
5455;BME280;2750;49.050;9.250;2022-07-24T06:09:37;99090.47;;;34.95;55.05
5455;BME280;2750;49.050;9.250;2022-07-24T06:14:39;99086.47;;;36.50;53.29
5455;BME280;2750;49.050;9.250;2022-07-24T06:19:40;99101.41;;;38.39;50.32
5455;BME280;2750;49.050;9.250;2022-07-24T06:24:43;99097.28;;;37.56;51.33
5455;BME280;2750;49.050;9.250;2022-07-24T06:29:45;99090.50;;;38.95;48.21
5455;BME280;2750;49.050;9.250;2022-07-24T06:34:46;99094.50;;;38.31;48.82
5455;BME280;2750;49.050;9.250;2022-07-24T06:39:49;99089.03;;;39.21;48.13
5455;BME280;2750;49.050;9.250;2022-07-24T06:44:51;99092.31;;;38.45;48.77
5455;BME280;2750;49.050;9.250;2022-07-24T06:49:52;99079.94;;;38.65;48.45
5455;BME280;2750;49.050;9.250;2022-07-24T06:54:55;99080.59;;;38.72;47.75
5455;BME280;2750;49.050;9.250;2022-07-24T06:59:57;99082.56;;;40.79;45.45
5455;BME280;2750;49.050;9.250;2022-07-24T07:04:59;99073.19;;;38.68;47.58
5455;BME280;2750;49.050;9.250;2022-07-24T07:10:02;99078.41;;;38.41;47.70
5455;BME280;2750;49.050;9.250;2022-07-24T07:15:04;99069.44;;;39.36;46.31
5455;BME280;2750;49.050;9.250;2022-07-24T07:20:08;99082.59;;;39.44;46.14
5455;BME280;2750;49.050;9.250;2022-07-24T07:25:12;99079.69;;;40.59;44.92
5455;BME280;2750;49.050;9.250;2022-07-24T07:30:13;99083.13;;;40.81;44.97
5455;BME280;2750;49.050;9.250;2022-07-24T07:35:15;99086.13;;;40.26;44.99
5455;BME280;2750;49.050;9.250;2022-07-24T07:40:18;99091.16;;;40.39;45.78
5455;BME280;2750;49.050;9.250;2022-07-24T07:45:20;99085.78;;;41.03;44.67
5455;BME280;2750;49.050;9.250;2022-07-24T07:50:21;99072.72;;;39.76;45.98
5455;BME280;2750;49.050;9.250;2022-07-24T07:55:24;99077.84;;;39.73;45.51
5455;BME280;2750;49.050;9.250;2022-07-24T08:00:26;99068.75;;;40.91;44.11
5455;BME280;2750;49.050;9.250;2022-07-24T08:05:27;99068.94;;;40.79;44.11
5455;BME280;2750;49.050;9.250;2022-07-24T08:10:31;99069.56;;;40.59;44.08
5455;BME280;2750;49.050;9.250;2022-07-24T08:15:32;99070.50;;;38.85;45.65
5455;BME280;2750;49.050;9.250;2022-07-24T08:20:34;99063.13;;;40.66;43.71
5455;BME280;2750;49.050;9.250;2022-07-24T08:25:36;99060.63;;;39.67;44.33
5455;BME280;2750;49.050;9.250;2022-07-24T08:30:38;99058.22;;;36.76;48.16
5455;BME280;2750;49.050;9.250;2022-07-24T08:35:39;99056.19;;;36.30;49.56
5455;BME280;2750;49.050;9.250;2022-07-24T08:40:42;99054.84;;;37.50;47.77
5455;BME280;2750;49.050;9.250;2022-07-24T08:45:44;99055.28;;;39.55;45.34
5455;BME280;2750;49.050;9.250;2022-07-24T08:50:45;99050.91;;;39.16;46.02
5455;BME280;2750;49.050;9.250;2022-07-24T08:55:48;99053.47;;;38.89;45.61
5455;BME280;2750;49.050;9.250;2022-07-24T09:00:50;99050.72;;;37.48;47.41
5455;BME280;2750;49.050;9.250;2022-07-24T09:05:53;99057.88;;;37.65;47.69
5455;BME280;2750;49.050;9.250;2022-07-24T09:11:00;99053.97;;;36.80;47.84
5455;BME280;2750;49.050;9.250;2022-07-24T09:16:04;99058.81;;;35.70;49.35
5455;BME280;2750;49.050;9.250;2022-07-24T09:21:13;99049.53;;;34.42;51.44
5455;BME280;2750;49.050;9.250;2022-07-24T09:26:16;99052.03;;;33.99;52.80
5455;BME280;2750;49.050;9.250;2022-07-24T09:31:17;99055.28;;;33.63;52.81
5455;BME280;2750;49.050;9.250;2022-07-24T09:36:23;99048.69;;;32.41;54.89
5455;BME280;2750;49.050;9.250;2022-07-24T09:41:27;99046.06;;;32.81;53.86
5455;BME280;2750;49.050;9.250;2022-07-24T09:46:29;99044.38;;;33.32;53.01
5455;BME280;2750;49.050;9.250;2022-07-24T09:51:31;99049.59;;;33.14;53.08
5455;BME280;2750;49.050;9.250;2022-07-24T09:56:35;99039.44;;;32.83;53.25
5455;BME280;2750;49.050;9.250;2022-07-24T10:01:38;99049.19;;;31.56;53.66
5455;BME280;2750;49.050;9.250;2022-07-24T10:06:46;99037.28;;;32.19;52.36
5455;BME280;2750;49.050;9.250;2022-07-24T10:11:50;99037.53;;;32.44;53.42
5455;BME280;2750;49.050;9.250;2022-07-24T10:17:03;99028.00;;;32.48;52.45
5455;BME280;2750;49.050;9.250;2022-07-24T10:22:10;99029.25;;;32.46;52.66
5455;BME280;2750;49.050;9.250;2022-07-24T10:27:23;99022.50;;;32.69;51.92
5455;BME280;2750;49.050;9.250;2022-07-24T10:32:25;99021.19;;;33.89;51.19
5455;BME280;2750;49.050;9.250;2022-07-24T10:37:31;99008.88;;;34.06;51.27
5455;BME280;2750;49.050;9.250;2022-07-24T10:43:08;99007.78;;;34.20;49.70
5455;BME280;2750;49.050;9.250;2022-07-24T10:48:28;98999.28;;;34.97;46.93
5455;BME280;2750;49.050;9.250;2022-07-24T10:53:43;99007.28;;;34.61;47.24
5455;BME280;2750;49.050;9.250;2022-07-24T10:58:53;99003.91;;;33.65;50.59
5455;BME280;2750;49.050;9.250;2022-07-24T11:03:55;98994.53;;;34.12;49.00
5455;BME280;2750;49.050;9.250;2022-07-24T11:09:01;99001.91;;;33.41;49.72
5455;BME280;2750;49.050;9.250;2022-07-24T11:14:04;98990.66;;;33.57;50.30
5455;BME280;2750;49.050;9.250;2022-07-24T11:19:26;98991.13;;;34.54;49.42
5455;BME280;2750;49.050;9.250;2022-07-24T11:24:28;98995.34;;;34.19;49.13
5455;BME280;2750;49.050;9.250;2022-07-24T11:29:33;98979.88;;;33.63;50.02
5455;BME280;2750;49.050;9.250;2022-07-24T11:34:36;98973.91;;;33.48;50.09
5455;BME280;2750;49.050;9.250;2022-07-24T11:39:38;98963.66;;;35.14;48.13
5455;BME280;2750;49.050;9.250;2022-07-24T11:44:43;98969.38;;;35.54;46.90
5455;BME280;2750;49.050;9.250;2022-07-24T11:49:46;98961.28;;;34.99;48.29
5455;BME280;2750;49.050;9.250;2022-07-24T11:54:50;98947.88;;;35.95;46.88
5455;BME280;2750;49.050;9.250;2022-07-24T11:59:53;98945.97;;;34.75;49.24
5455;BME280;2750;49.050;9.250;2022-07-24T12:04:55;98952.72;;;34.59;49.32
5455;BME280;2750;49.050;9.250;2022-07-24T12:09:58;98941.94;;;34.34;49.25
5455;BME280;2750;49.050;9.250;2022-07-24T12:15:03;98934.72;;;34.78;49.46
5455;BME280;2750;49.050;9.250;2022-07-24T12:20:06;98927.25;;;35.34;48.28
5455;BME280;2750;49.050;9.250;2022-07-24T12:25:10;98922.59;;;36.01;47.19
5455;BME280;2750;49.050;9.250;2022-07-24T12:30:21;98908.13;;;36.95;47.36
5455;BME280;2750;49.050;9.250;2022-07-24T12:35:25;98901.56;;;37.71;45.47
5455;BME280;2750;49.050;9.250;2022-07-24T12:40:32;98901.75;;;36.43;46.64
5455;BME280;2750;49.050;9.250;2022-07-24T12:45:35;98897.22;;;36.02;47.27
5455;BME280;2750;49.050;9.250;2022-07-24T12:50:38;98884.13;;;35.10;48.11
5455;BME280;2750;49.050;9.250;2022-07-24T12:55:39;98878.66;;;35.16;48.63
5455;BME280;2750;49.050;9.250;2022-07-24T13:00:55;98881.50;;;34.85;48.29
5455;BME280;2750;49.050;9.250;2022-07-24T13:05:57;98878.34;;;35.06;48.74
5455;BME280;2750;49.050;9.250;2022-07-24T13:10:58;98870.25;;;35.72;48.21
5455;BME280;2750;49.050;9.250;2022-07-24T13:16:01;98851.00;;;35.92;46.62
5455;BME280;2750;49.050;9.250;2022-07-24T13:21:03;98855.81;;;35.48;46.87
5455;BME280;2750;49.050;9.250;2022-07-24T13:26:05;98848.97;;;36.17;46.63
5455;BME280;2750;49.050;9.250;2022-07-24T13:31:08;98837.53;;;36.73;46.13
5455;BME280;2750;49.050;9.250;2022-07-24T13:36:10;98834.28;;;37.11;45.79
5455;BME280;2750;49.050;9.250;2022-07-24T13:41:13;98823.06;;;37.48;44.63
5455;BME280;2750;49.050;9.250;2022-07-24T13:46:16;98823.63;;;38.11;45.31
5455;BME280;2750;49.050;9.250;2022-07-24T13:51:18;98823.03;;;38.43;43.68
5455;BME280;2750;49.050;9.250;2022-07-24T13:56:20;98811.22;;;39.41;43.05
5455;BME280;2750;49.050;9.250;2022-07-24T14:01:24;98803.44;;;40.13;42.86
5455;BME280;2750;49.050;9.250;2022-07-24T14:06:26;98799.56;;;38.53;43.39
5455;BME280;2750;49.050;9.250;2022-07-24T14:11:32;98796.03;;;39.45;42.43
5455;BME280;2750;49.050;9.250;2022-07-24T14:16:35;98784.09;;;40.51;41.26
5455;BME280;2750;49.050;9.250;2022-07-24T14:21:38;98784.81;;;40.89;40.66
5455;BME280;2750;49.050;9.250;2022-07-24T14:26:39;98771.94;;;41.82;39.76
5455;BME280;2750;49.050;9.250;2022-07-24T14:31:42;98771.50;;;40.97;41.19
5455;BME280;2750;49.050;9.250;2022-07-24T14:36:44;98766.34;;;40.39;41.37
5455;BME280;2750;49.050;9.250;2022-07-24T14:41:45;98758.69;;;39.62;41.95
5455;BME280;2750;49.050;9.250;2022-07-24T14:46:49;98743.09;;;39.52;42.43
5455;BME280;2750;49.050;9.250;2022-07-24T14:51:51;98734.75;;;41.25;40.78
5455;BME280;2750;49.050;9.250;2022-07-24T14:56:52;98741.06;;;41.71;40.64
5455;BME280;2750;49.050;9.250;2022-07-24T15:01:55;98739.97;;;42.03;40.41
5455;BME280;2750;49.050;9.250;2022-07-24T15:06:56;98733.19;;;41.85;40.08
5455;BME280;2750;49.050;9.250;2022-07-24T15:11:58;98724.50;;;42.62;39.48
5455;BME280;2750;49.050;9.250;2022-07-24T15:17:01;98707.00;;;43.51;38.98
5455;BME280;2750;49.050;9.250;2022-07-24T15:22:03;98710.97;;;43.35;38.74
5455;BME280;2750;49.050;9.250;2022-07-24T15:27:04;98715.88;;;42.35;39.45
5455;BME280;2750;49.050;9.250;2022-07-24T15:32:07;98708.63;;;42.69;39.05
5455;BME280;2750;49.050;9.250;2022-07-24T15:37:09;98690.84;;;42.77;38.62
5455;BME280;2750;49.050;9.250;2022-07-24T15:42:10;98688.22;;;43.01;39.13
5455;BME280;2750;49.050;9.250;2022-07-24T15:47:13;98684.13;;;42.44;39.48
5455;BME280;2750;49.050;9.250;2022-07-24T15:52:14;98671.69;;;39.30;41.79
5455;BME280;2750;49.050;9.250;2022-07-24T15:57:16;98671.03;;;38.86;42.62
5455;BME280;2750;49.050;9.250;2022-07-24T16:02:19;98665.13;;;40.00;41.39
5455;BME280;2750;49.050;9.250;2022-07-24T16:07:22;98654.81;;;40.79;40.64
5455;BME280;2750;49.050;9.250;2022-07-24T16:12:24;98657.00;;;42.63;38.65
5455;BME280;2750;49.050;9.250;2022-07-24T16:17:27;98648.50;;;44.00;37.85
5455;BME280;2750;49.050;9.250;2022-07-24T16:22:28;98633.38;;;45.06;37.33
5455;BME280;2750;49.050;9.250;2022-07-24T16:27:30;98626.78;;;45.07;36.58
5455;BME280;2750;49.050;9.250;2022-07-24T16:32:33;98626.16;;;45.88;36.40
5455;BME280;2750;49.050;9.250;2022-07-24T16:37:34;98621.75;;;45.74;36.34
5455;BME280;2750;49.050;9.250;2022-07-24T16:42:36;98614.63;;;45.27;37.19
5455;BME280;2750;49.050;9.250;2022-07-24T16:47:39;98609.38;;;45.76;36.46
5455;BME280;2750;49.050;9.250;2022-07-24T16:52:40;98605.88;;;44.36;37.15
5455;BME280;2750;49.050;9.250;2022-07-24T16:57:42;98596.94;;;44.68;37.57
5455;BME280;2750;49.050;9.250;2022-07-24T17:02:44;98602.09;;;44.32;37.17
5455;BME280;2750;49.050;9.250;2022-07-24T17:07:46;98601.59;;;44.67;37.62
5455;BME280;2750;49.050;9.250;2022-07-24T17:12:48;98596.81;;;44.36;36.96
5455;BME280;2750;49.050;9.250;2022-07-24T17:17:50;98591.41;;;44.12;37.08
5455;BME280;2750;49.050;9.250;2022-07-24T17:23:05;98593.97;;;42.54;38.27
5455;BME280;2750;49.050;9.250;2022-07-24T17:28:09;98587.84;;;43.01;38.42
5455;BME280;2750;49.050;9.250;2022-07-24T17:33:12;98593.03;;;43.65;38.17
5455;BME280;2750;49.050;9.250;2022-07-24T17:38:14;98583.16;;;42.29;39.00
5455;BME280;2750;49.050;9.250;2022-07-24T17:43:16;98585.63;;;40.70;40.44
5455;BME280;2750;49.050;9.250;2022-07-24T17:48:19;98590.03;;;41.17;40.07
5455;BME280;2750;49.050;9.250;2022-07-24T17:53:20;98582.84;;;38.72;42.81
5455;BME280;2750;49.050;9.250;2022-07-24T17:58:22;98574.09;;;37.34;44.85
5455;BME280;2750;49.050;9.250;2022-07-24T18:03:25;98578.56;;;36.34;46.11
5455;BME280;2750;49.050;9.250;2022-07-24T18:08:26;98569.72;;;36.38;45.72
5455;BME280;2750;49.050;9.250;2022-07-24T18:13:28;98569.59;;;36.05;45.97
5455;BME280;2750;49.050;9.250;2022-07-24T18:18:32;98574.53;;;36.08;46.34
5455;BME280;2750;49.050;9.250;2022-07-24T18:23:34;98560.66;;;35.41;47.09
5455;BME280;2750;49.050;9.250;2022-07-24T18:28:37;98569.66;;;35.59;47.13
5455;BME280;2750;49.050;9.250;2022-07-24T18:33:39;98567.78;;;35.01;48.57
5455;BME280;2750;49.050;9.250;2022-07-24T18:38:41;98568.09;;;34.81;48.46
5455;BME280;2750;49.050;9.250;2022-07-24T18:43:43;98565.50;;;34.33;49.43
5455;BME280;2750;49.050;9.250;2022-07-24T18:48:46;98566.84;;;34.24;49.58
5455;BME280;2750;49.050;9.250;2022-07-24T18:53:47;98569.78;;;34.23;49.59
5455;BME280;2750;49.050;9.250;2022-07-24T18:58:51;98566.88;;;33.88;50.40
5455;BME280;2750;49.050;9.250;2022-07-24T19:03:54;98569.59;;;33.27;51.15
5455;BME280;2750;49.050;9.250;2022-07-24T19:08:56;98571.28;;;33.21;53.63
5455;BME280;2750;49.050;9.250;2022-07-24T19:13:57;98573.09;;;32.40;54.82
5455;BME280;2750;49.050;9.250;2022-07-24T19:19:02;98577.22;;;31.98;55.93
5455;BME280;2750;49.050;9.250;2022-07-24T19:24:04;98578.56;;;31.69;56.33
5455;BME280;2750;49.050;9.250;2022-07-24T19:29:06;98580.88;;;31.39;56.75
5455;BME280;2750;49.050;9.250;2022-07-24T19:34:08;98583.59;;;31.00;56.91
5455;BME280;2750;49.050;9.250;2022-07-24T19:39:10;98593.09;;;30.22;58.80
5455;BME280;2750;49.050;9.250;2022-07-24T19:44:12;98583.56;;;30.13;59.53
5455;BME280;2750;49.050;9.250;2022-07-24T19:49:16;98591.50;;;29.86;59.68
5455;BME280;2750;49.050;9.250;2022-07-24T19:54:18;98589.91;;;29.64;59.83
5455;BME280;2750;49.050;9.250;2022-07-24T19:59:21;98588.44;;;29.55;60.18
5455;BME280;2750;49.050;9.250;2022-07-24T20:04:24;98587.34;;;29.50;60.05
5455;BME280;2750;49.050;9.250;2022-07-24T20:09:26;98585.31;;;29.24;60.76
5455;BME280;2750;49.050;9.250;2022-07-24T20:14:27;98588.97;;;29.16;61.17
5455;BME280;2750;49.050;9.250;2022-07-24T20:19:30;98587.91;;;28.89;61.67
5455;BME280;2750;49.050;9.250;2022-07-24T20:24:32;98585.75;;;28.78;62.28
5455;BME280;2750;49.050;9.250;2022-07-24T20:29:34;98579.88;;;28.47;62.88
5455;BME280;2750;49.050;9.250;2022-07-24T20:34:37;98581.78;;;28.32;63.04
5455;BME280;2750;49.050;9.250;2022-07-24T20:39:38;98574.13;;;28.29;63.75
5455;BME280;2750;49.050;9.250;2022-07-24T20:44:40;98580.88;;;27.95;63.98
5455;BME280;2750;49.050;9.250;2022-07-24T20:49:43;98583.38;;;28.12;63.43
5455;BME280;2750;49.050;9.250;2022-07-24T20:54:44;98581.47;;;27.76;64.28
5455;BME280;2750;49.050;9.250;2022-07-24T20:59:46;98578.41;;;27.79;63.97
5455;BME280;2750;49.050;9.250;2022-07-24T21:04:49;98574.41;;;27.54;64.93
5455;BME280;2750;49.050;9.250;2022-07-24T21:09:50;98566.50;;;27.46;65.11
5455;BME280;2750;49.050;9.250;2022-07-24T21:14:52;98567.38;;;27.38;65.25
5455;BME280;2750;49.050;9.250;2022-07-24T21:19:55;98569.41;;;27.36;65.55
5455;BME280;2750;49.050;9.250;2022-07-24T21:24:56;98560.81;;;27.12;66.56
5455;BME280;2750;49.050;9.250;2022-07-24T21:29:58;98565.28;;;26.96;67.01
5455;BME280;2750;49.050;9.250;2022-07-24T21:35:01;98564.22;;;26.83;67.33
5455;BME280;2750;49.050;9.250;2022-07-24T21:40:03;98567.13;;;26.73;67.73
5455;BME280;2750;49.050;9.250;2022-07-24T21:45:06;98569.84;;;26.65;67.72
5455;BME280;2750;49.050;9.250;2022-07-24T21:50:09;98573.50;;;26.64;68.26
5455;BME280;2750;49.050;9.250;2022-07-24T21:55:11;98562.28;;;26.54;68.85
5455;BME280;2750;49.050;9.250;2022-07-24T22:00:14;98567.66;;;26.46;69.12
5455;BME280;2750;49.050;9.250;2022-07-24T22:05:17;98561.81;;;26.28;69.43
5455;BME280;2750;49.050;9.250;2022-07-24T22:10:18;98558.78;;;26.31;68.66
5455;BME280;2750;49.050;9.250;2022-07-24T22:15:20;98555.19;;;26.15;68.58
5455;BME280;2750;49.050;9.250;2022-07-24T22:20:23;98554.72;;;26.12;68.66
5455;BME280;2750;49.050;9.250;2022-07-24T22:25:24;98549.56;;;26.10;68.74
5455;BME280;2750;49.050;9.250;2022-07-24T22:30:26;98552.88;;;25.82;68.79
5455;BME280;2750;49.050;9.250;2022-07-24T22:35:29;98563.97;;;25.54;69.79
5455;BME280;2750;49.050;9.250;2022-07-24T22:40:31;98562.13;;;25.47;70.47
5455;BME280;2750;49.050;9.250;2022-07-24T22:45:33;98556.56;;;25.26;72.34
5455;BME280;2750;49.050;9.250;2022-07-24T22:50:36;98563.13;;;25.38;72.19
5455;BME280;2750;49.050;9.250;2022-07-24T22:55:38;98556.41;;;25.11;73.64
5455;BME280;2750;49.050;9.250;2022-07-24T23:00:40;98549.59;;;25.16;72.50
5455;BME280;2750;49.050;9.250;2022-07-24T23:05:43;98542.59;;;25.23;71.65
5455;BME280;2750;49.050;9.250;2022-07-24T23:10:44;98545.75;;;25.19;71.43
5455;BME280;2750;49.050;9.250;2022-07-24T23:15:46;98537.63;;;25.12;71.67
5455;BME280;2750;49.050;9.250;2022-07-24T23:20:48;98531.69;;;25.02;72.77
5455;BME280;2750;49.050;9.250;2022-07-24T23:25:50;98525.91;;;24.99;72.98
5455;BME280;2750;49.050;9.250;2022-07-24T23:30:51;98513.94;;;24.79;73.36
5455;BME280;2750;49.050;9.250;2022-07-24T23:35:54;98509.63;;;24.69;73.75
5455;BME280;2750;49.050;9.250;2022-07-24T23:40:56;98506.63;;;24.24;76.26
5455;BME280;2750;49.050;9.250;2022-07-24T23:45:57;98506.84;;;23.89;77.26
5455;BME280;2750;49.050;9.250;2022-07-24T23:51:03;98503.38;;;23.88;77.50
5455;BME280;2750;49.050;9.250;2022-07-24T23:56:05;98505.84;;;23.81;77.78
